Time;durP1;ratioP1;P1;durP2;ratioP2;P2;SDS_P1;SDS_P2;PMS_P1;PMS_P2;Temp;Humidity;BMP_temperature;BMP_pressure;BME280_temperature;BME280_humidity;BME280_pressure;Samples;Min_cycle;Max_cycle;Signal;HPM_P1;HPM_P2
2022/01/03 00:00:26;;;;;;;7.85;3.72;;;;;;;-5.14;59.11;99041.41;5069901;28;20024;-65
2022/01/03 00:02:54;;;;;;;6.50;3.42;;;;;;;-5.18;59.21;99038.00;5070335;28;20028;-63
2022/01/03 00:05:19;;;;;;;7.55;3.70;;;;;;;-5.16;59.42;99032.75;5069236;28;20060;-64
2022/01/03 00:07:46;;;;;;;7.60;4.22;;;;;;;-5.24;59.24;99010.31;5070164;28;20112;-65
2022/01/03 00:10:15;;;;;;;7.65;4.03;;;;;;;-5.20;58.96;99016.31;5069813;28;20466;-63
2022/01/03 00:12:41;;;;;;;6.25;3.72;;;;;;;-5.15;58.95;99027.47;5070609;28;20036;-65
2022/01/03 00:15:09;;;;;;;10.27;4.10;;;;;;;-5.15;59.36;99016.19;5070471;28;20043;-64
2022/01/03 00:17:36;;;;;;;6.05;3.40;;;;;;;-5.12;58.89;99019.56;5070128;28;20066;-64
2022/01/03 00:20:03;;;;;;;6.43;3.72;;;;;;;-5.15;59.34;99011.81;5069750;28;20035;-63
2022/01/03 00:22:36;;;;;;;7.45;3.15;;;;;;;-5.11;59.02;98999.53;5069591;28;20036;-64
2022/01/03 00:25:05;;;;;;;11.32;3.35;;;;;;;-5.11;59.24;99000.38;5069849;28;20390;-64
2022/01/03 00:27:50;;;;;;;5.68;2.90;;;;;;;-5.10;59.36;98990.81;5069652;28;20532;-64
2022/01/03 00:30:19;;;;;;;5.85;3.28;;;;;;;-5.14;59.40;98994.41;5069507;28;20043;-64
2022/01/03 00:32:47;;;;;;;8.02;3.22;;;;;;;-5.15;59.29;98983.09;5068649;28;20381;-63
2022/01/03 00:35:16;;;;;;;5.97;3.10;;;;;;;-5.19;59.26;98978.88;5069588;28;20029;-64
2022/01/03 00:37:44;;;;;;;7.10;3.35;;;;;;;-5.21;58.89;98983.28;5069595;28;20051;-65
2022/01/03 00:40:10;;;;;;;8.80;3.05;;;;;;;-5.49;58.98;98943.22;5070047;28;20107;-65
2022/01/03 00:42:35;;;;;;;7.43;3.58;;;;;;;-5.37;59.53;98978.53;5068189;28;20028;-64
2022/01/03 00:45:03;;;;;;;8.35;3.42;;;;;;;-5.52;59.79;98952.91;5069627;28;20101;-63
2022/01/03 00:47:33;;;;;;;8.07;3.55;;;;;;;-5.44;60.15;98958.72;5068335;28;20032;-63
2022/01/03 00:50:02;;;;;;;9.35;3.42;;;;;;;-5.43;60.06;98944.78;5069296;28;20041;-64
2022/01/03 00:52:28;;;;;;;6.82;3.67;;;;;;;-5.41;59.76;98944.75;5069335;28;20032;-64
2022/01/03 00:54:54;;;;;;;9.50;3.78;;;;;;;-5.50;60.07;98919.78;5068587;28;20090;-63
2022/01/03 00:57:27;;;;;;;6.82;3.97;;;;;;;-5.30;59.80;98941.84;5069145;28;20044;-63
2022/01/03 01:00:04;;;;;;;8.80;3.53;;;;;;;-5.45;59.97;98902.25;5069478;28;20063;-64
2022/01/03 01:02:35;;;;;;;6.75;3.38;;;;;;;-5.31;59.90;98921.81;5070000;28;20110;-63
2022/01/03 01:05:02;;;;;;;10.70;3.55;;;;;;;-5.33;59.81;98935.78;5069727;28;20907;-64
2022/01/03 01:07:31;;;;;;;7.72;3.00;;;;;;;-5.34;59.66;98921.03;5070100;28;20024;-65
2022/01/03 01:10:00;;;;;;;5.50;3.08;;;;;;;-5.51;59.59;98884.19;5073757;28;20044;-63
2022/01/03 01:12:29;;;;;;;6.80;3.05;;;;;;;-5.55;59.62;98875.59;5069510;28;20036;-63
2022/01/03 01:14:55;;;;;;;7.15;3.15;;;;;;;-5.40;60.15;98900.34;5071556;28;20104;-64
2022/01/03 01:17:21;;;;;;;5.75;2.80;;;;;;;-5.40;59.91;98900.34;5073200;28;20195;-64
2022/01/03 01:19:46;;;;;;;5.38;2.70;;;;;;;-5.46;59.88;98892.72;5073751;28;20474;-64
2022/01/03 01:22:13;;;;;;;7.32;2.90;;;;;;;-5.43;59.69;98896.97;5073579;28;20043;-65
2022/01/03 01:24:49;;;;;;;6.80;2.40;;;;;;;-5.45;59.39;98876.16;5071935;28;20521;-64
2022/01/03 01:29:58;;;;;;;4.63;2.40;;;;;;;-5.44;60.26;98882.22;5073417;28;20044;-63
2022/01/03 01:32:27;;;;;;;3.70;2.50;;;;;;;-5.48;60.04;98864.06;5073069;28;20412;-63
2022/01/03 01:34:54;;;;;;;7.70;2.42;;;;;;;-5.51;59.38;98855.47;5072748;28;20028;-64
2022/01/03 01:37:22;;;;;;;4.63;2.60;;;;;;;-5.49;59.85;98861.50;5072807;28;20029;-64
2022/01/03 01:39:49;;;;;;;3.13;2.40;;;;;;;-5.50;59.79;98857.19;5073928;28;20431;-64
2022/01/03 01:42:17;;;;;;;7.13;2.58;;;;;;;-5.48;59.63;98855.38;5073554;28;20051;-64
2022/01/03 01:44:48;;;;;;;7.68;3.08;;;;;;;-5.48;59.95;98852.78;5073147;28;20028;-64
2022/01/03 01:47:14;;;;;;;6.43;2.95;;;;;;;-5.50;59.64;98841.53;5072173;28;20075;-63
2022/01/03 01:49:44;;;;;;;6.93;3.05;;;;;;;-5.73;59.98;98803.97;5072434;28;20126;-65
2022/01/03 01:52:22;;;;;;;5.00;2.95;;;;;;;-5.50;60.28;98844.16;5070799;28;20052;-63
2022/01/03 01:55:09;;;;;;;6.05;2.60;;;;;;;-5.52;60.58;98838.13;5071121;28;20025;-63
2022/01/03 01:57:57;;;;;;;6.18;3.25;;;;;;;-5.50;60.36;98831.09;5071306;28;20101;-65
2022/01/03 02:00:24;;;;;;;8.40;3.40;;;;;;;-5.60;60.39;98824.44;5071696;28;20454;-64
2022/01/03 02:03:00;;;;;;;5.22;2.80;;;;;;;-5.48;60.23;98824.09;5071309;28;20449;-64
2022/01/03 02:05:39;;;;;;;5.90;2.83;;;;;;;-5.51;59.53;98813.75;5069601;28;20138;-63
2022/01/03 02:08:08;;;;;;;6.63;3.42;;;;;;;-5.56;59.93;98811.28;5071284;28;20493;-64
2022/01/03 02:10:41;;;;;;;6.53;3.15;;;;;;;-5.56;60.73;98810.41;5073425;28;20040;-65
2022/01/03 02:13:07;;;;;;;4.57;3.10;;;;;;;-5.57;60.50;98804.34;5071576;28;20055;-63
2022/01/03 02:15:36;;;;;;;6.70;2.70;;;;;;;-5.53;60.44;98790.31;5071555;28;20029;-64
2022/01/03 02:18:03;;;;;;;6.28;2.88;;;;;;;-5.53;60.19;98794.69;5071761;28;20032;-63
2022/01/03 02:20:30;;;;;;;5.95;2.80;;;;;;;-5.54;60.29;98798.19;5071573;28;20025;-63
2022/01/03 02:22:57;;;;;;;5.20;2.60;;;;;;;-5.57;60.48;98791.31;5072660;28;20029;-65
2022/01/03 02:25:24;;;;;;;5.70;2.22;;;;;;;-5.57;60.55;98783.50;5072809;28;20478;-63
2022/01/03 02:27:51;;;;;;;4.38;2.50;;;;;;;-5.58;60.25;98773.97;5073056;28;20446;-63
2022/01/03 02:30:22;;;;;;;5.70;2.90;;;;;;;-5.70;60.32;98753.47;5072411;28;20094;-63
2022/01/03 02:32:48;;;;;;;6.22;3.10;;;;;;;-5.59;60.47;98774.88;5072634;28;20105;-65
2022/01/03 02:35:14;;;;;;;6.38;3.03;;;;;;;-5.68;60.17;98767.31;5072644;28;20510;-65
2022/01/03 02:37:40;;;;;;;7.80;3.10;;;;;;;-5.64;60.27;98775.00;5072365;28;20028;-64
2022/01/03 02:40:07;;;;;;;6.88;3.30;;;;;;;-5.66;60.35;98758.56;5072028;28;20500;-64
2022/01/03 02:42:32;;;;;;;6.20;3.00;;;;;;;-5.63;60.34;98755.00;5071455;28;20037;-65
2022/01/03 02:45:09;;;;;;;5.65;3.38;;;;;;;-5.76;60.78;98733.69;5071919;28;20036;-63
2022/01/03 02:47:35;;;;;;;6.97;3.17;;;;;;;-5.59;60.46;98760.97;5072041;28;20036;-66
2022/01/03 02:50:01;;;;;;;7.45;3.33;;;;;;;-5.64;60.34;98751.53;5072519;28;20055;-63
2022/01/03 02:52:28;;;;;;;6.90;3.83;;;;;;;-5.59;60.68;98743.56;5071797;28;20044;-64
2022/01/03 02:54:54;;;;;;;5.85;3.03;;;;;;;-5.59;60.53;98734.88;5072181;28;20036;-64
2022/01/03 02:57:23;;;;;;;8.05;3.45;;;;;;;-5.58;60.81;98739.19;5072506;28;20043;-64
2022/01/03 03:00:10;;;;;;;7.63;3.22;;;;;;;-5.70;60.55;98720.44;5072125;28;20032;-64
2022/01/03 03:02:35;;;;;;;5.32;3.38;;;;;;;-5.59;60.54;98742.69;5071019;28;20028;-63
2022/01/03 03:05:04;;;;;;;6.60;3.45;;;;;;;-5.57;60.16;98746.97;5071499;28;20048;-64
2022/01/03 03:07:31;;;;;;;6.20;3.60;;;;;;;-5.58;60.83;98745.28;5071822;28;20614;-64
2022/01/03 03:09:57;;;;;;;9.25;3.55;;;;;;;-5.62;60.91;98743.66;5070859;28;20489;-63
2022/01/03 03:12:24;;;;;;;7.53;3.35;;;;;;;-5.63;60.87;98744.56;5070407;28;20047;-63
2022/01/03 03:14:50;;;;;;;7.55;3.28;;;;;;;-5.65;61.13;98736.78;5072046;28;20029;-64
2022/01/03 03:17:19;;;;;;;8.43;3.55;;;;;;;-5.64;61.14;98733.28;5071826;28;20038;-65
2022/01/03 03:20:08;;;;;;;9.38;3.22;;;;;;;-5.59;60.93;98740.09;5071654;28;20035;-63
2022/01/03 03:22:34;;;;;;;6.22;3.10;;;;;;;-5.60;60.90;98741.00;5071621;28;20033;-64
2022/01/03 03:25:10;;;;;;;5.20;3.10;;;;;;;-5.56;60.82;98727.81;5071792;28;20086;-63
2022/01/03 03:27:43;;;;;;;7.22;3.42;;;;;;;-5.57;61.04;98731.34;5071702;28;20133;-65
2022/01/03 03:30:30;;;;;;;7.13;3.50;;;;;;;-5.56;61.23;98717.38;5071319;28;20478;-63
2022/01/03 03:33:03;;;;;;;5.22;3.30;;;;;;;-5.51;61.01;98709.41;5071093;28;20097;-63
2022/01/03 03:35:29;;;;;;;6.70;3.67;;;;;;;-5.52;60.57;98708.56;5071911;28;20108;-63
2022/01/03 03:37:55;;;;;;;9.20;3.95;;;;;;;-5.53;61.22;98712.06;5071454;28;20154;-64
2022/01/03 03:40:20;;;;;;;6.55;3.75;;;;;;;-5.54;60.74;98704.31;5070713;28;20029;-64
2022/01/03 03:42:47;;;;;;;6.60;3.75;;;;;;;-5.53;61.05;98698.19;5070972;28;20474;-64
2022/01/03 03:45:13;;;;;;;5.28;3.60;;;;;;;-5.50;60.85;98695.47;5071578;28;20487;-64
2022/01/03 03:47:39;;;;;;;9.68;4.32;;;;;;;-5.50;60.70;98682.44;5071556;28;20486;-63
2022/01/03 03:50:05;;;;;;;6.50;3.65;;;;;;;-5.58;61.04;98667.03;5069545;28;20044;-64
2022/01/03 03:52:32;;;;;;;9.25;4.13;;;;;;;-5.50;60.59;98675.44;5071041;28;20070;-64
2022/01/03 03:54:57;;;;;;;10.15;4.40;;;;;;;-5.57;61.05;98665.25;5071649;28;20469;-63
2022/01/03 03:57:23;;;;;;;8.70;4.15;;;;;;;-5.54;60.86;98668.63;5071077;28;20064;-63
2022/01/03 03:59:49;;;;;;;7.95;3.90;;;;;;;-5.59;60.88;98652.28;5069732;28;20036;-64
2022/01/03 04:02:14;;;;;;;7.35;4.28;;;;;;;-5.53;60.83;98659.91;5069208;28;20488;-64
2022/01/03 04:04:40;;;;;;;5.63;3.70;;;;;;;-5.53;60.97;98653.84;5071333;28;20030;-64
2022/01/03 04:07:06;;;;;;;11.10;4.72;;;;;;;-5.58;61.22;98653.13;5070832;28;20028;-64
2022/01/03 04:09:31;;;;;;;12.48;5.03;;;;;;;-5.56;60.41;98659.13;5070662;28;20593;-65
2022/01/03 04:11:57;;;;;;;7.88;4.15;;;;;;;-5.64;61.28;98655.03;5069136;28;20139;-64
2022/01/03 04:14:23;;;;;;;8.35;4.85;;;;;;;-5.78;61.27;98634.66;5070030;28;20113;-63
2022/01/03 04:16:48;;;;;;;6.93;3.88;;;;;;;-5.67;61.26;98647.31;5070839;28;20464;-66
2022/01/03 04:19:14;;;;;;;8.45;4.38;;;;;;;-5.68;61.58;98656.06;5069212;28;20039;-64
2022/01/03 04:21:40;;;;;;;6.90;3.90;;;;;;;-5.69;61.60;98654.34;5070581;28;20033;-65
2022/01/03 04:24:07;;;;;;;9.60;3.50;;;;;;;-5.60;61.56;98654.94;5070319;28;20110;-63
2022/01/03 04:26:34;;;;;;;11.07;3.42;;;;;;;-5.59;60.81;98641.00;5070227;28;20484;-64
2022/01/03 04:28:59;;;;;;;9.02;4.07;;;;;;;-5.65;61.74;98632.47;5070628;28;20032;-65
2022/01/03 04:31:25;;;;;;;8.25;3.85;;;;;;;-5.66;61.32;98636.00;5070475;28;20061;-65
2022/01/03 04:33:51;;;;;;;8.27;3.78;;;;;;;-5.62;61.60;98634.97;5070021;28;20055;-63
2022/01/03 04:36:16;;;;;;;8.35;3.85;;;;;;;-5.62;61.60;98623.72;5070666;28;20458;-63
2022/01/03 04:38:42;;;;;;;9.27;4.07;;;;;;;-5.60;61.91;98623.66;5070828;28;20050;-63
2022/01/03 04:41:09;;;;;;;6.88;3.75;;;;;;;-5.57;61.77;98608.75;5068694;28;20024;-65
2022/01/03 04:43:35;;;;;;;6.40;3.15;;;;;;;-5.54;61.57;98610.41;5070181;28;20028;-64
2022/01/03 04:46:01;;;;;;;10.43;3.97;;;;;;;-5.53;61.31;98596.47;5070564;28;20097;-63
2022/01/03 04:48:26;;;;;;;6.13;3.17;;;;;;;-5.47;60.63;98609.28;5069956;28;20466;-64
2022/01/03 04:50:52;;;;;;;6.95;3.15;;;;;;;-5.59;60.78;98592.31;5070004;28;20066;-64
2022/01/03 04:53:18;;;;;;;5.63;3.13;;;;;;;-5.58;61.07;98595.75;5069585;28;20394;-66
2022/01/03 04:55:44;;;;;;;5.78;3.05;;;;;;;-5.54;60.67;98595.59;5070173;28;20086;-65
2022/01/03 04:58:10;;;;;;;3.65;2.58;;;;;;;-5.51;60.80;98592.06;5070297;28;20056;-63
2022/01/03 05:00:37;;;;;;;7.78;3.35;;;;;;;-5.58;60.78;98587.94;5070494;28;20123;-64
2022/01/03 05:03:03;;;;;;;6.18;3.67;;;;;;;-5.67;61.01;98574.31;5069553;28;20394;-63
2022/01/03 05:05:28;;;;;;;7.88;3.78;;;;;;;-5.64;61.42;98583.81;5070033;28;20036;-66
2022/01/03 05:07:54;;;;;;;5.90;3.40;;;;;;;-5.79;61.36;98564.28;5069993;28;20028;-64
2022/01/03 05:10:20;;;;;;;6.93;4.40;;;;;;;-5.76;61.60;98572.03;5070463;28;20052;-65
2022/01/03 05:12:45;;;;;;;8.18;4.20;;;;;;;-5.71;62.09;98577.06;5070436;28;20028;-64
2022/01/03 05:15:11;;;;;;;7.95;3.78;;;;;;;-5.84;61.99;98541.00;5070156;28;20033;-63
2022/01/03 05:17:36;;;;;;;9.75;4.32;;;;;;;-5.69;61.75;98562.22;5069272;28;20397;-64
2022/01/03 05:20:02;;;;;;;7.95;4.32;;;;;;;-5.58;61.65;98573.16;5069761;28;20498;-63
2022/01/03 05:22:28;;;;;;;9.38;5.30;;;;;;;-5.73;61.64;98543.25;5070356;28;20070;-64
2022/01/03 05:24:54;;;;;;;9.77;4.70;;;;;;;-5.54;61.53;98571.28;5069622;28;20036;-64
2022/01/03 05:27:19;;;;;;;8.60;4.47;;;;;;;-5.51;61.60;98568.56;5069713;28;20176;-65
2022/01/03 05:29:46;;;;;;;10.35;4.75;;;;;;;-5.47;61.48;98564.94;5070403;28;20040;-65
2022/01/03 05:32:11;;;;;;;7.50;4.47;;;;;;;-5.43;61.80;98566.53;5070676;28;20039;-64
2022/01/03 05:34:37;;;;;;;9.80;4.53;;;;;;;-5.42;61.77;98564.78;5069692;28;20383;-65
2022/01/03 05:37:02;;;;;;;8.63;4.82;;;;;;;-5.41;61.31;98563.88;5069814;28;20136;-65
2022/01/03 05:39:28;;;;;;;11.43;4.80;;;;;;;-5.43;61.24;98566.53;5070374;28;20028;-65
2022/01/03 05:41:53;;;;;;;9.40;5.13;;;;;;;-5.42;61.56;98563.03;5070493;28;20465;-66
2022/01/03 05:44:19;;;;;;;9.00;4.90;;;;;;;-5.46;61.42;98564.03;5069631;28;20037;-66
2022/01/03 05:46:44;;;;;;;9.18;4.80;;;;;;;-5.45;61.73;98560.53;5068474;28;20028;-65
2022/01/03 05:49:11;;;;;;;9.05;4.68;;;;;;;-5.49;61.73;98531.09;5070011;28;20052;-64
2022/01/03 05:51:37;;;;;;;8.20;5.07;;;;;;;-5.37;61.60;98553.25;5070027;28;20032;-64
2022/01/03 05:54:04;;;;;;;10.73;5.20;;;;;;;-5.40;61.25;98542.13;5069216;28;20554;-64
2022/01/03 05:56:30;;;;;;;12.57;5.63;;;;;;;-5.49;61.71;98541.50;5073160;28;20118;-66
2022/01/03 05:58:55;;;;;;;10.68;5.63;;;;;;;-5.59;61.54;98537.53;5073544;28;20025;-64
2022/01/03 06:01:22;;;;;;;10.27;5.97;;;;;;;-5.56;61.93;98533.97;5073579;28;20495;-65
2022/01/03 06:03:56;;;;;;;13.32;6.05;;;;;;;-5.63;62.00;98523.75;5086141;28;20085;-65
2022/01/03 06:06:53;;;;;;;11.10;5.97;;;;;;;-5.54;62.05;98519.13;5081912;28;20117;-64
2022/01/03 06:09:08;;;;;;;8.88;5.18;;;;;;;-5.47;61.44;98518.00;5081066;28;20386;-64
2022/01/03 06:11:34;;;;;;;11.75;5.88;;;;;;;-5.45;61.18;98517.94;5081789;28;20039;-63
2022/01/03 06:13:59;;;;;;;11.00;6.25;;;;;;;-5.51;61.12;98521.63;5083425;28;20032;-64
2022/01/03 06:16:25;;;;;;;9.65;5.88;;;;;;;-5.52;61.95;98512.09;5082216;28;20020;-63
2022/01/03 06:18:51;;;;;;;13.48;5.88;;;;;;;-5.50;61.65;98518.13;5082382;28;20079;-63
2022/01/03 06:21:16;;;;;;;13.20;6.15;;;;;;;-5.47;61.52;98516.22;5083530;28;20081;-66
2022/01/03 06:23:42;;;;;;;10.45;5.97;;;;;;;-5.47;61.81;98507.56;5078897;28;20044;-63
2022/01/03 06:26:07;;;;;;;14.07;6.22;;;;;;;-5.43;61.15;98505.69;5083202;28;20103;-65
2022/01/03 06:28:33;;;;;;;13.93;6.13;;;;;;;-5.53;62.09;98484.31;5079495;28;20116;-64
2022/01/03 06:30:58;;;;;;;12.65;6.18;;;;;;;-5.47;61.96;98489.31;5072798;28;20024;-64
2022/01/03 06:33:24;;;;;;;11.40;5.65;;;;;;;-5.51;61.54;98474.69;5073066;28;20145;-64
2022/01/03 06:35:49;;;;;;;9.40;5.65;;;;;;;-5.45;62.12;98484.03;5072700;28;20024;-63
2022/01/03 06:38:15;;;;;;;11.05;5.28;;;;;;;-5.42;61.74;98479.53;5072522;28;20545;-63
2022/01/03 06:40:40;;;;;;;10.75;5.35;;;;;;;-5.34;61.59;98479.28;5073437;28;20028;-64
2022/01/03 06:43:06;;;;;;;11.30;5.47;;;;;;;-5.34;61.39;98461.84;5072025;28;20113;-64
2022/01/03 06:45:31;;;;;;;13.07;6.45;;;;;;;-5.37;61.47;98461.97;5072662;28;20039;-63
2022/01/03 06:47:57;;;;;;;11.80;6.35;;;;;;;-5.34;62.01;98459.22;5072672;28;20032;-63
2022/01/03 06:50:23;;;;;;;13.23;6.20;;;;;;;-5.40;61.16;98440.38;5072444;28;20044;-63
2022/01/03 06:52:49;;;;;;;10.05;5.70;;;;;;;-5.35;61.30;98452.31;5072178;28;20033;-64
2022/01/03 06:55:15;;;;;;;11.63;6.00;;;;;;;-5.35;60.98;98456.69;5072416;28;20090;-64
2022/01/03 06:57:40;;;;;;;11.38;6.03;;;;;;;-5.57;61.49;98439.25;5072709;28;20458;-63
2022/01/03 07:00:07;;;;;;;13.25;6.35;;;;;;;-5.53;61.53;98445.22;5072060;28;20058;-63
2022/01/03 07:02:32;;;;;;;12.13;6.05;;;;;;;-5.67;62.19;98441.34;5071848;28;20036;-63
2022/01/03 07:04:58;;;;;;;11.45;5.90;;;;;;;-5.60;62.04;98430.66;5071912;28;20033;-63
2022/01/03 07:07:23;;;;;;;14.68;6.45;;;;;;;-5.58;61.91;98418.41;5072668;28;20063;-63
2022/01/03 07:09:48;;;;;;;14.18;6.80;;;;;;;-5.47;61.72;98443.19;5071621;28;20031;-62
2022/01/03 07:12:16;;;;;;;13.68;5.97;;;;;;;-5.37;61.71;98435.88;5071107;28;20029;-60
2022/01/03 07:19:55;;;;;;;12.05;6.13;;;;;;;-5.22;60.82;98425.78;5070226;28;20097;-66
2022/01/03 07:22:22;;;;;;;11.93;6.32;;;;;;;-5.20;61.54;98431.78;5070260;28;20028;-65
2022/01/03 07:24:48;;;;;;;13.18;6.30;;;;;;;-5.08;60.58;98440.88;5071064;28;20037;-68
2022/01/03 07:27:14;;;;;;;10.77;5.47;;;;;;;-5.07;60.62;98432.97;5071432;28;20036;-70
2022/01/03 07:29:40;;;;;;;18.73;7.32;;;;;;;-4.94;60.63;98435.13;5070711;28;20032;-69
2022/01/03 07:32:07;;;;;;;14.23;6.57;;;;;;;-4.93;60.09;98415.94;5070434;28;20063;-69
2022/01/03 07:34:33;;;;;;;12.90;6.03;;;;;;;-4.84;59.96;98433.84;5069692;28;20104;-69
2022/01/03 07:36:58;;;;;;;11.15;5.93;;;;;;;-4.87;60.25;98427.91;5070884;28;20028;-69
2022/01/03 07:39:24;;;;;;;14.73;7.85;;;;;;;-4.87;60.44;98431.34;5070894;28;20043;-69
2022/01/03 07:41:49;;;;;;;14.98;6.53;;;;;;;-4.77;60.26;98435.31;5074574;28;20032;-73
2022/01/03 07:44:15;;;;;;;12.63;5.82;;;;;;;-4.87;60.03;98396.56;5080197;28;20458;-71
2022/01/03 07:46:41;;;;;;;12.27;6.30;;;;;;;-4.67;59.34;98414.03;5083132;28;20028;-72
2022/01/03 07:49:07;;;;;;;12.88;6.35;;;;;;;-4.65;59.15;98420.03;5074952;28;20136;-72
2022/01/03 07:51:32;;;;;;;13.05;6.63;;;;;;;-4.86;60.01;98406.94;5079808;28;20370;-67
2022/01/03 07:53:58;;;;;;;11.30;6.18;;;;;;;-4.72;59.58;98421.22;5078748;28;20029;-66
2022/01/03 07:56:24;;;;;;;13.27;6.47;;;;;;;-4.69;60.24;98415.84;5079216;28;20032;-70
2022/01/03 07:58:50;;;;;;;10.55;5.35;;;;;;;-4.54;59.37;98404.78;5081698;28;20024;-66
2022/01/03 08:01:15;;;;;;;14.32;6.43;;;;;;;-4.58;59.65;98400.59;5090363;28;20031;-66
2022/01/03 08:03:41;;;;;;;12.15;6.78;;;;;;;-4.54;58.92;98396.94;5089750;28;20039;-67
2022/01/03 08:06:08;;;;;;;14.27;7.30;;;;;;;-4.48;59.30;98388.84;5090011;28;20043;-66
2022/01/03 08:08:38;;;;;;;13.65;6.85;;;;;;;-4.40;58.73;98382.44;5090518;28;20035;-67
2022/01/03 08:11:04;;;;;;;16.55;7.18;;;;;;;-4.43;58.96;98378.22;5089526;28;20028;-65
2022/01/03 08:13:30;;;;;;;10.85;6.55;;;;;;;-4.48;58.79;98375.78;5090263;28;20028;-65
2022/01/03 08:15:55;;;;;;;16.02;7.25;;;;;;;-4.49;58.60;98361.03;5089642;28;20028;-65
2022/01/03 08:18:21;;;;;;;11.48;6.30;;;;;;;-4.54;59.09;98383.88;5089236;28;20036;-66
2022/01/03 08:20:46;;;;;;;14.63;8.05;;;;;;;-4.65;59.11;98370.41;5090491;28;20037;-67
2022/01/03 08:23:12;;;;;;;13.27;6.78;;;;;;;-4.72;59.69;98364.59;5089517;28;20039;-65
2022/01/03 08:25:38;;;;;;;16.15;7.10;;;;;;;-4.62;59.36;98371.16;5089653;28;20097;-67
2022/01/03 08:28:05;;;;;;;12.73;6.90;;;;;;;-4.55;58.60;98360.44;5090289;28;20388;-68
2022/01/03 08:30:31;;;;;;;12.15;6.82;;;;;;;-4.50;58.71;98353.25;5089688;28;20028;-66
2022/01/03 08:32:56;;;;;;;16.00;6.78;;;;;;;-4.44;58.88;98362.59;5089406;28;20081;-65
2022/01/03 08:35:24;;;;;;;13.68;7.65;;;;;;;-4.38;58.15;98355.34;5090104;28;20044;-65
2022/01/03 08:37:50;;;;;;;16.15;8.02;;;;;;;-4.32;58.23;98352.44;5081766;28;20098;-65
2022/01/03 08:40:16;;;;;;;17.25;7.57;;;;;;;-4.44;59.12;98341.69;5089739;28;20107;-66
2022/01/03 08:42:42;;;;;;;12.95;6.65;;;;;;;-4.39;59.34;98339.72;5088507;28;20462;-66
2022/01/03 08:45:08;;;;;;;15.48;7.85;;;;;;;-4.50;58.88;98309.69;5089839;28;20036;-65
2022/01/03 08:47:33;;;;;;;16.00;7.85;;;;;;;-4.26;59.01;98329.56;5088286;28;20473;-66
2022/01/03 08:49:59;;;;;;;14.07;7.32;;;;;;;-4.12;58.50;98339.41;5089355;28;20063;-64
2022/01/03 08:52:25;;;;;;;14.05;7.28;;;;;;;-4.10;58.66;98330.59;5090036;28;20043;-65
2022/01/03 08:54:50;;;;;;;15.77;7.60;;;;;;;-4.09;58.51;98336.69;5090026;28;20481;-66
2022/01/03 08:57:16;;;;;;;19.55;7.95;;;;;;;-4.10;58.05;98319.28;5082678;28;20111;-67
2022/01/03 08:59:42;;;;;;;13.98;7.35;;;;;;;-4.11;58.13;98313.22;5082956;28;20087;-66
2022/01/03 09:02:08;;;;;;;16.27;8.18;;;;;;;-4.11;58.40;98318.44;5081311;28;20024;-64
2022/01/03 09:04:33;;;;;;;15.35;7.50;;;;;;;-4.14;58.71;98308.13;5090127;28;20036;-66
2022/01/03 09:06:59;;;;;;;16.30;8.27;;;;;;;-4.22;58.10;98299.75;5089956;28;20054;-64
2022/01/03 09:09:27;;;;;;;15.63;7.72;;;;;;;-4.21;58.63;98299.72;5090517;28;20434;-64
2022/01/03 09:11:53;;;;;;;16.00;8.18;;;;;;;-4.17;58.17;98297.81;5090294;28;20024;-65
2022/01/03 09:14:19;;;;;;;18.80;8.63;;;;;;;-4.14;58.22;98288.97;5090331;28;20133;-64
2022/01/03 09:16:44;;;;;;;17.48;8.82;;;;;;;-4.20;58.46;98285.72;5088865;28;20496;-65
2022/01/03 09:19:10;;;;;;;17.42;8.38;;;;;;;-4.15;57.91;98284.66;5090603;28;20024;-65
2022/01/03 09:21:36;;;;;;;16.50;7.90;;;;;;;-4.13;58.34;98282.81;5090775;28;20036;-65
2022/01/03 09:29:30;;;;;;;22.27;8.45;;;;;;;-4.10;58.41;98273.09;5093358;28;20450;-66
2022/01/03 09:31:56;;;;;;;20.40;10.18;;;;;;;-4.10;57.99;98264.38;5072841;28;20024;-65
2022/01/03 09:34:21;;;;;;;22.77;10.52;;;;;;;-4.12;57.86;98268.84;5073669;28;20105;-64
2022/01/03 09:36:47;;;;;;;25.50;11.60;;;;;;;-4.18;58.16;98264.75;5072998;28;20122;-64
2022/01/03 09:39:12;;;;;;;27.83;11.32;;;;;;;-4.17;58.65;98256.00;5073587;28;20571;-66
2022/01/03 09:41:52;;;;;;;26.23;10.68;;;;;;;-4.26;58.17;98223.28;5074052;28;20028;-69
2022/01/03 09:44:21;;;;;;;25.08;11.63;;;;;;;-4.10;57.51;98256.53;5073136;28;20033;-65
2022/01/03 09:46:48;;;;;;;26.98;10.68;;;;;;;-4.14;57.26;98255.00;5073316;28;20034;-66
2022/01/03 09:49:17;;;;;;;24.77;12.05;;;;;;;-4.48;57.66;98220.78;5073588;28;20464;-66
2022/01/03 09:51:43;;;;;;;23.52;10.45;;;;;;;-4.43;58.54;98257.16;5073778;28;20051;-67
2022/01/03 09:54:12;;;;;;;25.80;11.52;;;;;;;-4.52;58.77;98254.06;5073402;28;20509;-65
2022/01/03 09:56:40;;;;;;;24.77;10.93;;;;;;;-4.53;59.04;98251.50;5071225;28;20124;-65
2022/01/03 09:59:06;;;;;;;24.88;10.65;;;;;;;-4.47;58.66;98246.00;5070831;28;20103;-67
2022/01/03 10:01:33;;;;;;;23.20;10.40;;;;;;;-4.35;58.01;98235.00;5071245;28;20418;-65
2022/01/03 10:03:59;;;;;;;21.52;9.57;;;;;;;-4.20;57.97;98241.28;5071377;28;20029;-67
2022/01/03 10:06:25;;;;;;;23.85;9.68;;;;;;;-4.16;57.93;98235.94;5070860;28;20119;-63
2022/01/03 10:08:51;;;;;;;19.90;9.80;;;;;;;-4.11;57.18;98233.94;5071995;28;20107;-65
2022/01/03 10:11:19;;;;;;;23.00;9.25;;;;;;;-4.10;57.06;98225.19;5070876;28;20036;-64
2022/01/03 10:13:45;;;;;;;19.00;9.07;;;;;;;-4.21;57.56;98231.75;5069789;28;20024;-66
2022/01/03 10:16:11;;;;;;;20.52;8.75;;;;;;;-4.45;57.19;98209.38;5070879;28;20059;-66
2022/01/03 10:18:37;;;;;;;16.73;8.32;;;;;;;-4.29;57.54;98226.06;5070438;28;20055;-65
2022/01/03 10:21:04;;;;;;;18.55;8.65;;;;;;;-4.26;57.44;98236.34;5070249;28;20029;-65
2022/01/03 10:23:30;;;;;;;21.45;9.73;;;;;;;-4.25;57.50;98217.16;5070943;28;20367;-65
2022/01/03 10:26:15;;;;;;;17.08;8.80;;;;;;;-4.15;58.14;98219.31;5071013;28;20082;-64
2022/01/03 10:28:41;;;;;;;20.17;9.23;;;;;;;-4.15;57.05;98196.66;5072432;28;20074;-63
2022/01/03 10:31:21;;;;;;;20.17;9.63;;;;;;;-4.10;57.68;98210.34;5073348;28;20463;-66
2022/01/03 10:34:03;;;;;;;19.30;9.02;;;;;;;-4.21;57.45;98204.78;5072720;28;20096;-65
2022/01/03 10:36:31;;;;;;;16.95;8.93;;;;;;;-4.25;57.23;98201.47;5072298;28;20029;-65
2022/01/03 10:38:58;;;;;;;18.95;8.32;;;;;;;-4.32;57.26;98195.66;5073469;28;20036;-64
2022/01/03 10:41:25;;;;;;;22.48;9.35;;;;;;;-4.55;57.00;98165.38;5072409;28;20028;-65
2022/01/03 10:43:54;;;;;;;18.25;8.07;;;;;;;-4.45;57.66;98191.06;5072457;28;20048;-64
2022/01/03 10:46:27;;;;;;;15.70;7.97;;;;;;;-4.47;58.27;98197.22;5073178;28;20090;-65
2022/01/03 10:49:04;;;;;;;16.40;8.60;;;;;;;-4.55;57.92;98194.13;5073086;28;20114;-64
2022/01/03 10:51:30;;;;;;;16.95;8.13;;;;;;;-4.49;58.20;98192.97;5072438;28;20040;-63
2022/01/03 10:53:56;;;;;;;13.85;7.10;;;;;;;-4.35;57.72;98179.28;5070691;28;20090;-66
2022/01/03 10:56:36;;;;;;;15.20;7.88;;;;;;;-4.25;57.94;98171.84;5072882;28;20036;-64
2022/01/03 10:59:22;;;;;;;16.10;7.10;;;;;;;-4.26;58.14;98175.38;5072608;28;20036;-64
2022/01/03 11:01:52;;;;;;;13.25;7.28;;;;;;;-4.29;57.63;98165.94;5071762;28;20524;-68
2022/01/03 11:04:57;;;;;;;18.52;8.25;;;;;;;-4.25;58.20;98164.88;5072079;28;20051;-63
2022/01/03 11:13:16;;;;;;;15.90;7.18;;;;;;;-3.96;57.32;98164.44;5071022;28;20070;-66
2022/01/03 11:16:00;;;;;;;12.60;5.95;;;;;;;-4.03;57.25;98158.63;5072325;28;20035;-67
2022/01/03 11:18:34;;;;;;;17.63;7.95;;;;;;;-4.24;58.33;98166.56;5072836;28;20032;-66
2022/01/03 11:21:16;;;;;;;17.17;8.27;;;;;;;-4.24;57.69;98161.34;5071740;28;20035;-65
2022/01/03 11:24:00;;;;;;;13.05;6.95;;;;;;;-4.23;58.20;98154.34;5071696;28;20064;-64
2022/01/03 11:26:28;;;;;;;16.08;7.43;;;;;;;-4.34;57.84;98157.44;5072373;28;20377;-65
2022/01/03 11:28:55;;;;;;;16.10;7.95;;;;;;;-4.42;58.04;98155.22;5071856;28;20033;-65
2022/01/03 11:31:21;;;;;;;18.08;8.68;;;;;;;-4.54;58.43;98154.03;5071567;28;20032;-66
2022/01/03 11:33:50;;;;;;;16.83;8.13;;;;;;;-4.55;58.95;98154.06;5071380;28;20132;-64
2022/01/03 11:36:21;;;;;;;16.52;8.10;;;;;;;-4.44;58.25;98148.38;5072023;28;20028;-66
2022/01/03 11:38:46;;;;;;;18.40;8.73;;;;;;;-4.68;59.13;98145.97;5071769;28;20040;-65
2022/01/03 11:41:13;;;;;;;22.23;9.20;;;;;;;-4.70;59.00;98150.41;5071207;28;20454;-66
2022/01/03 11:43:41;;;;;;;13.90;7.65;;;;;;;-4.68;58.79;98144.22;5071119;28;20474;-65
2022/01/03 11:46:08;;;;;;;17.50;8.65;;;;;;;-4.66;58.87;98138.91;5071665;28;20043;-65
2022/01/03 11:48:35;;;;;;;19.33;8.88;;;;;;;-4.64;58.94;98147.50;5068402;28;20055;-64
2022/01/03 11:51:05;;;;;;;20.95;8.55;;;;;;;-4.58;58.44;98147.25;5068278;28;20194;-65